createdAt,value
2018-07-06T00:00:24.967Z,16.90
2018-07-06T00:01:24.956Z,16.98
2018-07-06T00:02:24.950Z,16.92
2018-07-06T00:03:24.926Z,16.85
2018-07-06T00:04:24.917Z,16.98
2018-07-06T00:05:24.903Z,17.02
2018-07-06T00:06:24.898Z,16.96
2018-07-06T00:07:24.893Z,16.90
2018-07-06T00:08:24.871Z,16.92
2018-07-06T00:09:24.860Z,16.99
2018-07-06T00:10:24.850Z,16.98
2018-07-06T00:11:24.842Z,16.96
2018-07-06T00:12:24.947Z,16.95
2018-07-06T00:13:24.823Z,16.88
2018-07-06T00:14:24.806Z,16.91
2018-07-06T00:15:24.796Z,16.87
2018-07-06T00:16:24.791Z,16.84
2018-07-06T00:17:24.796Z,16.87
2018-07-06T00:18:24.760Z,16.87
2018-07-06T00:19:24.771Z,16.87
2018-07-06T00:20:24.739Z,16.85
2018-07-06T00:21:24.724Z,16.85
2018-07-06T00:22:24.742Z,16.90
2018-07-06T00:23:24.706Z,16.88
2018-07-06T00:24:24.701Z,16.85
2018-07-06T00:25:24.685Z,16.88
2018-07-06T00:26:24.672Z,16.80
2018-07-06T00:27:24.698Z,16.78
2018-07-06T00:28:24.650Z,16.90
2018-07-06T00:29:24.637Z,16.90
2018-07-06T00:30:24.626Z,16.80
2018-07-06T00:31:24.619Z,16.88
2018-07-06T00:32:24.640Z,16.78
2018-07-06T00:33:24.594Z,16.87
2018-07-06T00:34:24.582Z,16.87
2018-07-06T00:35:24.572Z,16.80
2018-07-06T00:36:24.575Z,16.90
2018-07-06T00:37:24.575Z,16.92
2018-07-06T00:38:24.535Z,16.82
2018-07-06T00:39:24.524Z,16.85
2018-07-06T00:40:24.513Z,16.84
2018-07-06T00:41:24.527Z,16.84
2018-07-06T00:42:24.518Z,16.85
2018-07-06T00:43:24.487Z,16.91
2018-07-06T00:44:24.468Z,16.87
2018-07-06T00:45:24.462Z,16.88
2018-07-06T00:46:24.465Z,16.90
2018-07-06T00:47:24.436Z,16.85
2018-07-06T00:48:24.447Z,16.85
2018-07-06T00:49:24.424Z,16.91
2018-07-06T00:50:24.402Z,16.82
2018-07-06T00:51:24.408Z,16.81
2018-07-06T00:52:24.389Z,16.82
2018-07-06T00:53:24.379Z,16.78
2018-07-06T00:54:24.356Z,16.78
2018-07-06T00:55:24.347Z,16.73
2018-07-06T00:56:24.333Z,16.85
2018-07-06T00:57:24.324Z,16.85
2018-07-06T00:58:24.346Z,16.73
2018-07-06T00:59:24.300Z,16.84
2018-07-06T01:00:24.289Z,16.75
2018-07-06T01:01:24.281Z,16.78
2018-07-06T01:02:24.267Z,16.78
2018-07-06T01:03:24.266Z,16.78
2018-07-06T01:04:24.249Z,16.78
2018-07-06T01:05:24.236Z,16.77
2018-07-06T01:06:24.224Z,16.78
2018-07-06T01:07:24.212Z,16.80
2018-07-06T01:08:24.212Z,16.80
2018-07-06T01:09:24.189Z,16.84
2018-07-06T01:10:24.179Z,16.70
2018-07-06T01:11:24.175Z,16.84
2018-07-06T01:12:24.168Z,16.80
2018-07-06T01:13:24.157Z,16.73
2018-07-06T01:14:24.135Z,16.78
2018-07-06T01:15:24.124Z,16.75
2018-07-06T01:16:24.111Z,16.80
2018-07-06T01:17:24.105Z,16.75
2018-07-06T01:18:24.105Z,16.75
2018-07-06T01:19:24.076Z,16.82
2018-07-06T01:20:24.067Z,16.77
2018-07-06T01:21:24.057Z,16.78
2018-07-06T01:22:24.046Z,16.80
2018-07-06T01:23:24.069Z,16.80
2018-07-06T01:24:24.023Z,16.80
2018-07-06T01:25:24.028Z,16.78
2018-07-06T01:26:24.001Z,16.75
2018-07-06T01:27:23.991Z,16.75
2018-07-06T01:28:23.990Z,16.73
2018-07-06T01:29:23.966Z,16.67
2018-07-06T01:30:23.955Z,16.69
2018-07-06T01:31:23.956Z,16.70
2018-07-06T01:32:23.933Z,16.72
2018-07-06T01:33:23.933Z,16.72
2018-07-06T01:34:23.910Z,16.72
2018-07-06T01:35:23.901Z,16.67
2018-07-06T01:36:23.888Z,16.66
2018-07-06T01:37:23.878Z,16.69
2018-07-06T01:38:23.875Z,16.72
2018-07-06T01:39:23.855Z,16.66
2018-07-06T01:40:23.853Z,16.70
2018-07-06T01:41:23.834Z,16.77
2018-07-06T01:42:23.830Z,16.81
2018-07-06T01:43:23.827Z,16.67
2018-07-06T01:44:23.804Z,16.77
2018-07-06T01:45:23.789Z,16.73
2018-07-06T01:46:23.814Z,16.73
2018-07-06T01:47:23.766Z,16.78
2018-07-06T01:48:23.766Z,16.66
2018-07-06T01:49:23.753Z,16.75
2018-07-06T01:50:23.753Z,16.78
2018-07-06T01:51:23.727Z,16.73
2018-07-06T01:52:23.711Z,16.77
2018-07-06T01:53:23.714Z,16.72
2018-07-06T01:54:23.720Z,16.72
2018-07-06T01:55:23.677Z,16.63
2018-07-06T01:56:23.685Z,16.69
2018-07-06T01:57:23.665Z,16.60
2018-07-06T01:58:23.659Z,16.70
2018-07-06T01:59:23.634Z,16.70
2018-07-06T02:00:23.622Z,16.66
2018-07-06T02:01:23.614Z,16.70
2018-07-06T02:02:23.618Z,16.75
2018-07-06T02:03:23.601Z,16.67
2018-07-06T02:04:23.596Z,16.72
2018-07-06T02:05:23.571Z,16.67
2018-07-06T02:06:23.562Z,16.70
2018-07-06T02:07:23.544Z,16.63
2018-07-06T02:08:23.556Z,16.66
2018-07-06T02:09:23.525Z,16.67
2018-07-06T02:10:23.511Z,16.63
2018-07-06T02:11:23.501Z,16.78
2018-07-06T02:12:23.498Z,16.73
2018-07-06T02:13:23.491Z,16.80
2018-07-06T02:14:23.466Z,16.73
2018-07-06T02:15:23.462Z,16.70
2018-07-06T02:16:23.448Z,16.82
2018-07-06T02:17:23.447Z,16.78
2018-07-06T02:18:23.441Z,16.82
2018-07-06T02:19:23.416Z,16.78
2018-07-06T02:20:23.405Z,16.73
2018-07-06T02:21:23.395Z,16.82
2018-07-06T02:22:23.379Z,16.78
2018-07-06T02:23:23.382Z,16.82
2018-07-06T02:24:23.356Z,16.70
2018-07-06T02:25:23.347Z,16.81
2018-07-06T02:26:23.337Z,16.75
2018-07-06T02:27:23.326Z,16.80
2018-07-06T02:28:23.324Z,16.80
2018-07-06T02:29:23.300Z,16.77
2018-07-06T02:30:23.290Z,16.77
2018-07-06T02:31:23.290Z,16.82
2018-07-06T02:32:23.267Z,16.81
2018-07-06T02:33:23.296Z,16.80
2018-07-06T02:34:23.244Z,16.81
2018-07-06T02:35:23.248Z,16.73
2018-07-06T02:36:23.223Z,16.81
2018-07-06T02:37:23.214Z,16.85
2018-07-06T02:38:23.221Z,16.80
2018-07-06T02:39:23.194Z,16.82
2018-07-06T02:40:23.207Z,16.78
2018-07-06T02:41:23.187Z,16.80
2018-07-06T02:42:23.156Z,16.81
2018-07-06T02:43:23.172Z,16.70
2018-07-06T02:44:23.139Z,16.78
2018-07-06T02:45:23.135Z,16.78
2018-07-06T02:46:23.113Z,16.77
2018-07-06T02:47:23.103Z,16.80
2018-07-06T02:48:23.091Z,16.73
2018-07-06T02:49:23.090Z,16.81
2018-07-06T02:50:23.067Z,16.80
2018-07-06T02:51:23.066Z,16.85
2018-07-06T02:52:23.046Z,16.87
2018-07-06T02:53:23.036Z,16.77
2018-07-06T02:54:23.033Z,16.77
2018-07-06T02:55:23.011Z,16.85
2018-07-06T02:56:23.004Z,16.85
2018-07-06T02:57:22.999Z,16.85
2018-07-06T02:58:22.984Z,16.88
2018-07-06T02:59:22.980Z,16.91
2018-07-06T03:00:22.956Z,16.88
2018-07-06T03:01:22.946Z,16.87
2018-07-06T03:02:22.933Z,16.87
2018-07-06T03:03:22.924Z,16.80
2018-07-06T03:04:22.920Z,16.90
2018-07-06T03:05:22.901Z,16.82
2018-07-06T03:06:22.890Z,16.92
2018-07-06T03:07:22.919Z,16.87
2018-07-06T03:08:22.866Z,16.85
2018-07-06T03:09:22.871Z,16.87
2018-07-06T03:10:22.847Z,16.92
2018-07-06T03:11:22.836Z,16.88
2018-07-06T03:12:22.823Z,16.90
2018-07-06T03:13:22.811Z,16.81
2018-07-06T03:14:22.810Z,16.87
2018-07-06T03:15:22.799Z,16.90
2018-07-06T03:16:22.799Z,16.90
2018-07-06T03:17:22.768Z,16.85
2018-07-06T03:18:22.755Z,16.95
2018-07-06T03:19:22.761Z,16.95
2018-07-06T03:20:22.737Z,16.98
2018-07-06T03:21:22.726Z,16.96
2018-07-06T03:22:22.713Z,16.98
2018-07-06T03:23:22.703Z,16.98
2018-07-06T03:24:22.702Z,16.96
2018-07-06T03:25:22.681Z,16.92
2018-07-06T03:26:22.667Z,16.91
2018-07-06T03:27:22.661Z,16.95
2018-07-06T03:28:22.729Z,16.95
2018-07-06T03:29:22.651Z,16.90
2018-07-06T03:30:22.626Z,16.90
2018-07-06T03:31:22.613Z,16.85
2018-07-06T03:32:22.603Z,16.91
2018-07-06T03:33:22.596Z,16.92
2018-07-06T03:34:22.589Z,16.91
2018-07-06T03:35:22.569Z,16.92
2018-07-06T03:36:22.557Z,16.95
2018-07-06T03:37:22.548Z,16.96
2018-07-06T03:38:22.546Z,16.96
2018-07-06T03:39:22.538Z,17.00
2018-07-06T03:40:22.515Z,16.98
2018-07-06T03:41:22.501Z,16.95
2018-07-06T03:42:22.492Z,16.95
2018-07-06T03:43:22.481Z,16.91
2018-07-06T03:44:22.480Z,16.98
2018-07-06T03:45:22.460Z,16.91
2018-07-06T03:46:22.446Z,16.98
2018-07-06T03:47:22.438Z,16.96
2018-07-06T03:48:22.427Z,16.96
2018-07-06T03:49:22.435Z,17.00
2018-07-06T03:50:22.409Z,16.99
2018-07-06T03:51:22.391Z,16.95
2018-07-06T03:52:22.380Z,17.05
2018-07-06T03:53:22.391Z,16.95
2018-07-06T03:54:22.369Z,17.09
2018-07-06T03:55:22.371Z,17.02
2018-07-06T03:56:22.339Z,17.00
2018-07-06T03:57:22.331Z,17.03
2018-07-06T03:58:22.318Z,17.02
2018-07-06T03:59:22.315Z,16.96
2018-07-06T04:00:22.291Z,17.00
2018-07-06T04:01:22.280Z,16.92
2018-07-06T04:02:22.269Z,16.95
2018-07-06T04:03:22.274Z,16.98
2018-07-06T04:04:22.258Z,16.98
2018-07-06T04:05:22.251Z,16.99
2018-07-06T04:06:22.225Z,17.06
2018-07-06T04:07:22.214Z,17.02
2018-07-06T04:08:22.203Z,16.99
2018-07-06T04:09:22.214Z,17.14
2018-07-06T04:10:22.181Z,17.14
2018-07-06T04:11:22.170Z,17.10
2018-07-06T04:12:22.158Z,17.18
2018-07-06T04:13:22.147Z,17.02
2018-07-06T04:14:22.145Z,16.96
2018-07-06T04:15:22.129Z,17.03
2018-07-06T04:16:22.114Z,16.96
2018-07-06T04:17:22.106Z,16.98
2018-07-06T04:18:22.095Z,17.03
2018-07-06T04:19:22.092Z,17.06
2018-07-06T04:20:22.070Z,17.07
2018-07-06T04:21:22.063Z,17.05
2018-07-06T04:22:22.048Z,16.96
2018-07-06T04:23:22.036Z,17.02
2018-07-06T04:24:22.037Z,17.02
2018-07-06T04:25:22.014Z,16.96
2018-07-06T04:26:22.016Z,16.98
2018-07-06T04:27:21.997Z,17.02
2018-07-06T04:28:21.993Z,17.07
2018-07-06T04:29:21.993Z,16.96
2018-07-06T04:30:21.959Z,16.95
2018-07-06T04:31:21.946Z,16.99
2018-07-06T04:32:21.938Z,16.98
2018-07-06T04:33:21.931Z,16.98
2018-07-06T04:34:21.929Z,16.90
2018-07-06T04:35:21.903Z,16.87
2018-07-06T04:36:21.894Z,16.85
2018-07-06T04:37:21.883Z,16.84
2018-07-06T04:38:21.873Z,16.87
2018-07-06T04:39:21.870Z,16.80
2018-07-06T04:40:21.898Z,16.80
2018-07-06T04:41:21.837Z,16.73
2018-07-06T04:42:21.838Z,16.72
2018-07-06T04:43:21.815Z,16.66
2018-07-06T04:44:21.870Z,16.62
2018-07-06T04:45:21.798Z,16.70
2018-07-06T04:46:21.800Z,16.81
2018-07-06T04:47:21.773Z,16.78
2018-07-06T04:48:21.759Z,16.85
2018-07-06T04:49:21.757Z,16.90
2018-07-06T04:50:21.746Z,16.85
2018-07-06T04:51:21.734Z,16.91
2018-07-06T04:52:21.715Z,16.88
2018-07-06T04:53:21.703Z,16.96
2018-07-06T04:54:21.693Z,16.92
2018-07-06T04:55:21.691Z,16.98
2018-07-06T04:56:21.677Z,16.99
2018-07-06T04:57:21.662Z,17.02
2018-07-06T04:58:21.647Z,17.02
2018-07-06T04:59:21.639Z,16.98
2018-07-06T05:00:21.636Z,17.05
2018-07-06T05:01:21.613Z,17.00
2018-07-06T05:02:21.603Z,16.98
2018-07-06T05:03:21.599Z,16.99
2018-07-06T05:04:21.597Z,17.02
2018-07-06T05:05:21.581Z,16.98
2018-07-06T05:06:21.559Z,17.02
2018-07-06T05:07:21.548Z,16.99
2018-07-06T05:08:21.538Z,17.07
2018-07-06T05:09:21.526Z,17.09
2018-07-06T05:10:21.533Z,17.02
2018-07-06T05:11:21.503Z,17.06
2018-07-06T05:12:21.493Z,16.96
2018-07-06T05:13:21.484Z,17.05
2018-07-06T05:14:21.472Z,17.00
2018-07-06T05:15:21.469Z,17.07
2018-07-06T05:16:21.449Z,17.05
2018-07-06T05:17:21.440Z,17.12
2018-07-06T05:18:21.434Z,17.12
2018-07-06T05:19:21.423Z,17.05
2018-07-06T05:20:21.415Z,17.00
2018-07-06T05:21:21.392Z,17.12
2018-07-06T05:22:21.382Z,17.10
2018-07-06T05:23:21.375Z,17.15
2018-07-06T05:24:21.364Z,17.14
2018-07-06T05:25:21.366Z,17.09
2018-07-06T05:26:21.338Z,17.15
2018-07-06T05:27:21.327Z,17.12
2018-07-06T05:28:21.321Z,17.30
2018-07-06T05:29:21.302Z,17.38
2018-07-06T05:30:21.308Z,17.22
2018-07-06T05:31:21.282Z,17.33
2018-07-06T05:32:21.270Z,17.38
2018-07-06T05:33:21.265Z,17.45
2018-07-06T05:34:21.251Z,17.51
2018-07-06T05:35:21.279Z,17.57
2018-07-06T05:36:21.230Z,17.60
2018-07-06T05:37:21.215Z,17.65
2018-07-06T05:38:21.209Z,17.84
2018-07-06T05:39:21.196Z,17.83
2018-07-06T05:40:21.191Z,17.84
2018-07-06T05:41:21.175Z,17.98
2018-07-06T05:42:21.167Z,18.04
2018-07-06T05:43:21.165Z,18.14
2018-07-06T05:44:21.140Z,18.35
2018-07-06T05:45:21.136Z,18.47
2018-07-06T05:46:21.137Z,18.51
2018-07-06T05:47:21.103Z,18.51
2018-07-06T05:48:21.095Z,18.69
2018-07-06T05:49:21.089Z,18.65
2018-07-06T05:50:21.086Z,18.53
2018-07-06T05:51:21.060Z,18.46
2018-07-06T05:52:21.048Z,18.31
2018-07-06T05:53:21.038Z,18.28
2018-07-06T05:54:21.026Z,18.28
2018-07-06T05:55:21.029Z,18.20
2018-07-06T05:56:21.004Z,18.31
2018-07-06T05:57:20.992Z,18.35
2018-07-06T05:58:20.981Z,18.26
2018-07-06T05:59:21.045Z,18.13
2018-07-06T06:00:20.979Z,18.13
2018-07-06T06:01:20.949Z,18.17
2018-07-06T06:02:20.946Z,18.35
2018-07-06T06:03:20.926Z,18.41
2018-07-06T06:04:20.915Z,18.36
2018-07-06T06:05:20.916Z,18.34
2018-07-06T06:06:20.902Z,18.38
2018-07-06T06:07:20.887Z,18.32
2018-07-06T06:08:20.879Z,17.98
2018-07-06T06:09:20.861Z,17.86
2018-07-06T06:10:20.862Z,17.89
2018-07-06T06:11:20.839Z,17.83
2018-07-06T06:12:20.856Z,17.79
2018-07-06T06:13:20.817Z,17.80
2018-07-06T06:14:20.810Z,17.95
2018-07-06T06:15:20.805Z,18.17
2018-07-06T06:16:20.783Z,18.66
2018-07-06T06:17:20.776Z,19.17
2018-07-06T06:18:20.758Z,19.38
2018-07-06T06:19:20.751Z,19.25
2018-07-06T06:20:20.752Z,19.20
2018-07-06T06:21:20.729Z,19.13
2018-07-06T06:22:20.715Z,18.94
2018-07-06T06:23:20.704Z,18.79
2018-07-06T06:24:20.694Z,18.75
2018-07-06T06:25:20.698Z,18.72
2018-07-06T06:26:20.684Z,18.68
2018-07-06T06:27:20.657Z,18.53
2018-07-06T06:28:20.647Z,18.49
2018-07-06T06:29:20.640Z,18.54
2018-07-06T06:30:20.642Z,18.57
2018-07-06T06:31:20.615Z,18.75
2018-07-06T06:32:20.610Z,18.78
2018-07-06T06:33:20.743Z,18.93
2018-07-06T06:34:20.580Z,18.94
2018-07-06T06:35:20.587Z,19.05
2018-07-06T06:36:20.559Z,19.32
2018-07-06T06:37:20.547Z,19.42
2018-07-06T06:38:20.536Z,19.45
2018-07-06T06:39:20.579Z,19.53
2018-07-06T06:40:20.524Z,19.47
2018-07-06T06:41:20.502Z,19.58
2018-07-06T06:42:20.492Z,19.76
2018-07-06T06:43:20.480Z,19.71
2018-07-06T06:44:20.477Z,19.75
2018-07-06T06:45:20.469Z,19.70
2018-07-06T06:46:20.451Z,20.20
2018-07-06T06:47:20.439Z,20.25
2018-07-06T06:48:20.429Z,20.50
2018-07-06T06:49:20.419Z,21.49
2018-07-06T06:50:20.444Z,21.46
2018-07-06T06:51:20.394Z,21.15
2018-07-06T06:52:20.383Z,20.85
2018-07-06T06:53:20.380Z,20.82
2018-07-06T06:54:20.364Z,20.58
2018-07-06T06:55:20.350Z,20.69
2018-07-06T06:56:20.352Z,20.53
2018-07-06T06:57:20.334Z,20.30
2018-07-06T06:58:20.318Z,20.20
2018-07-06T06:59:20.311Z,20.07
2018-07-06T07:00:21.151Z,19.94
2018-07-06T07:01:20.296Z,19.95
2018-07-06T07:02:20.275Z,19.86
2018-07-06T07:03:20.266Z,19.85
2018-07-06T07:04:20.253Z,19.65
2018-07-06T07:05:20.244Z,19.65
2018-07-06T07:06:20.258Z,19.58
2018-07-06T07:07:20.245Z,19.55
2018-07-06T07:08:20.208Z,19.65
2018-07-06T07:09:20.209Z,19.65
2018-07-06T07:10:20.189Z,19.83
2018-07-06T07:11:20.188Z,19.95
2018-07-06T07:12:20.165Z,19.92
2018-07-06T07:13:20.155Z,19.94
2018-07-06T07:14:20.154Z,20.02
2018-07-06T07:15:20.141Z,20.90
2018-07-06T07:16:20.142Z,21.38
2018-07-06T07:17:20.112Z,21.21
2018-07-06T07:18:20.100Z,21.09
2018-07-06T07:19:20.092Z,20.85
2018-07-06T07:20:20.080Z,20.64
2018-07-06T07:21:20.093Z,20.61
2018-07-06T07:22:20.064Z,20.46
2018-07-06T07:23:20.047Z,20.60
2018-07-06T07:24:20.038Z,20.68
2018-07-06T07:25:20.028Z,20.83
2018-07-06T07:26:20.029Z,20.73
2018-07-06T07:27:20.012Z,20.68
2018-07-06T07:28:19.998Z,20.61
2018-07-06T07:29:19.988Z,20.53
2018-07-06T07:30:19.976Z,20.42
2018-07-06T07:31:19.978Z,20.33
2018-07-06T07:32:19.953Z,20.33
2018-07-06T07:33:19.944Z,20.35
2018-07-06T07:34:19.946Z,20.53
2018-07-06T07:35:19.934Z,21.28
2018-07-06T07:36:19.919Z,23.37
2018-07-06T07:37:19.899Z,24.61
2018-07-06T07:38:19.889Z,24.97
2018-07-06T07:39:19.877Z,23.64
2018-07-06T07:40:19.867Z,22.89
2018-07-06T07:41:19.870Z,22.51
2018-07-06T07:42:21.071Z,22.26
2018-07-06T07:43:19.840Z,22.41
2018-07-06T07:44:19.825Z,22.17
2018-07-06T07:45:19.813Z,22.26
2018-07-06T07:46:19.817Z,22.17
2018-07-06T07:47:19.806Z,21.77
2018-07-06T07:48:19.788Z,21.83
2018-07-06T07:49:19.768Z,21.81
2018-07-06T07:50:19.761Z,21.71
2018-07-06T07:51:19.763Z,21.66
2018-07-06T07:52:19.746Z,21.56
2018-07-06T07:53:19.731Z,21.58
2018-07-06T07:54:19.723Z,21.51
2018-07-06T07:55:19.707Z,21.45
2018-07-06T07:56:19.708Z,21.46
2018-07-06T07:57:19.684Z,23.01
2018-07-06T07:58:19.674Z,24.63
2018-07-06T07:59:19.661Z,26.21
2018-07-06T08:00:19.693Z,26.56
2018-07-06T08:01:19.869Z,25.05
2018-07-06T08:02:19.628Z,24.26
2018-07-06T08:03:19.614Z,23.74
2018-07-06T08:04:19.611Z,23.42
2018-07-06T08:05:19.593Z,23.25
2018-07-06T08:06:19.600Z,24.93
2018-07-06T08:07:19.576Z,26.56
2018-07-06T08:08:19.560Z,27.68
2018-07-06T08:09:19.547Z,28.58
2018-07-06T08:10:19.537Z,27.15
2018-07-06T08:11:19.535Z,26.86
2018-07-06T08:12:19.512Z,26.03
2018-07-06T08:13:19.504Z,25.04
2018-07-06T08:14:19.510Z,24.45
2018-07-06T08:15:19.481Z,24.21
2018-07-06T08:16:19.479Z,23.78
2018-07-06T08:17:19.456Z,23.14
2018-07-06T08:18:19.527Z,22.64
2018-07-06T08:19:19.436Z,22.11
2018-07-06T08:20:19.426Z,21.74
2018-07-06T08:21:19.448Z,21.38
2018-07-06T08:22:19.401Z,21.18
2018-07-06T08:23:19.388Z,21.11
2018-07-06T08:24:19.378Z,20.97
2018-07-06T08:25:19.375Z,20.97
2018-07-06T08:26:19.366Z,21.03
2018-07-06T08:27:19.363Z,21.16
2018-07-06T08:28:19.337Z,21.43
2018-07-06T08:29:19.322Z,24.48
2018-07-06T08:30:19.362Z,26.64
2018-07-06T08:31:19.313Z,27.76
2018-07-06T08:32:19.292Z,27.88
2018-07-06T08:33:19.286Z,26.79
2018-07-06T08:34:19.272Z,26.65
2018-07-06T08:35:19.256Z,26.01
2018-07-06T08:36:19.267Z,26.42
2018-07-06T08:37:19.231Z,25.82
2018-07-06T08:38:19.233Z,24.93
2018-07-06T08:39:19.211Z,24.21
2018-07-06T08:40:19.198Z,23.67
2018-07-06T08:41:19.198Z,23.37
2018-07-06T08:42:19.178Z,22.74
2018-07-06T08:43:19.164Z,22.57
2018-07-06T08:44:19.156Z,22.59
2018-07-06T08:45:19.144Z,25.11
2018-07-06T08:46:19.151Z,25.38
2018-07-06T08:47:19.128Z,27.48
2018-07-06T08:48:19.109Z,29.10
2018-07-06T08:49:19.096Z,29.79
2018-07-06T08:50:19.131Z,30.81
2018-07-06T08:51:19.091Z,31.37
2018-07-06T08:52:19.065Z,31.94
2018-07-06T08:53:19.057Z,32.63
2018-07-06T08:54:19.041Z,33.29
2018-07-06T08:55:19.031Z,33.53
2018-07-06T08:56:19.050Z,33.71
2018-07-06T08:57:19.012Z,32.99
2018-07-06T08:58:19.039Z,32.62
2018-07-06T08:59:18.985Z,30.73
2018-07-06T09:00:18.984Z,30.73
2018-07-06T09:01:18.961Z,31.52
2018-07-06T09:02:18.961Z,30.49
2018-07-06T09:03:18.964Z,28.85
2018-07-06T09:04:19.063Z,27.84
2018-07-06T09:05:18.920Z,27.13
2018-07-06T09:06:18.932Z,26.06
2018-07-06T09:07:18.914Z,25.35
2018-07-06T09:08:18.888Z,24.83
2018-07-06T09:09:18.937Z,24.31
2018-07-06T09:10:18.868Z,23.49
2018-07-06T09:11:18.870Z,22.59
2018-07-06T09:12:18.856Z,22.24
2018-07-06T09:13:18.846Z,22.19
2018-07-06T09:14:18.820Z,24.33
2018-07-06T09:15:18.811Z,27.02
2018-07-06T09:16:18.828Z,27.83
2018-07-06T09:17:18.799Z,28.40
2018-07-06T09:18:18.779Z,28.28
2018-07-06T09:19:18.795Z,26.94
2018-07-06T09:20:18.967Z,26.04
2018-07-06T09:21:18.742Z,25.53
2018-07-06T09:22:18.741Z,24.89
2018-07-06T09:23:18.720Z,24.56
2018-07-06T09:24:18.750Z,24.00
2018-07-06T09:25:18.722Z,23.15
2018-07-06T09:26:18.707Z,22.99
2018-07-06T09:27:18.719Z,23.06
2018-07-06T09:28:18.684Z,22.93
2018-07-06T09:29:18.656Z,22.94
2018-07-06T09:30:18.643Z,24.11
2018-07-06T09:31:18.635Z,25.79
2018-07-06T09:32:18.633Z,27.35
2018-07-06T09:33:18.615Z,28.92
2018-07-06T09:34:18.606Z,28.92
2018-07-06T09:35:18.588Z,28.80
2018-07-06T09:36:18.583Z,27.52
2018-07-06T09:37:18.583Z,27.12
2018-07-06T09:38:18.554Z,26.54
2018-07-06T09:39:18.554Z,26.06
2018-07-06T09:40:18.537Z,25.83
2018-07-06T09:41:18.520Z,25.20
2018-07-06T09:42:19.116Z,24.66
2018-07-06T09:43:18.527Z,24.41
2018-07-06T09:44:18.489Z,24.24
2018-07-06T09:45:18.503Z,24.19
2018-07-06T09:46:18.470Z,24.87
2018-07-06T09:47:18.469Z,26.20
2018-07-06T09:48:18.446Z,26.64
2018-07-06T09:49:18.434Z,25.20
2018-07-06T09:50:18.424Z,25.78
2018-07-06T09:51:18.421Z,25.45
2018-07-06T09:52:18.415Z,25.08
2018-07-06T09:53:19.097Z,24.89
2018-07-06T09:54:18.382Z,24.97
2018-07-06T09:55:18.372Z,24.15
2018-07-06T09:56:18.359Z,24.16
2018-07-06T09:57:18.379Z,24.08
2018-07-06T09:58:18.339Z,24.29
2018-07-06T09:59:18.327Z,24.15
2018-07-06T10:00:18.314Z,24.04
2018-07-06T10:01:18.302Z,24.21
2018-07-06T10:02:18.305Z,24.04
2018-07-06T10:03:18.283Z,23.90
2018-07-06T10:04:18.339Z,23.77
2018-07-06T10:05:18.258Z,23.59
2018-07-06T10:06:18.247Z,23.63
2018-07-06T10:07:18.247Z,23.44
2018-07-06T10:08:18.224Z,23.38
2018-07-06T10:09:18.237Z,23.31
2018-07-06T10:10:18.306Z,23.03
2018-07-06T10:11:18.191Z,22.78
2018-07-06T10:12:18.190Z,22.81
2018-07-06T10:13:18.173Z,22.97
2018-07-06T10:14:18.158Z,22.99
2018-07-06T10:15:18.149Z,23.12
2018-07-06T10:16:18.164Z,23.21
2018-07-06T10:17:18.145Z,22.97
2018-07-06T10:18:18.118Z,22.85
2018-07-06T10:19:18.108Z,22.76
2018-07-06T10:20:18.093Z,22.81
2018-07-06T10:21:18.083Z,22.76
2018-07-06T10:22:18.089Z,22.88
2018-07-06T10:23:18.064Z,22.89
2018-07-06T10:24:18.051Z,22.56
2018-07-06T10:25:18.039Z,22.41
2018-07-06T10:26:20.624Z,22.46
2018-07-06T10:27:18.072Z,22.36
2018-07-06T10:28:18.012Z,22.38
2018-07-06T10:29:17.997Z,22.31
2018-07-06T10:30:18.022Z,22.41
2018-07-06T10:31:17.972Z,22.24
2018-07-06T10:32:17.971Z,22.20
2018-07-06T10:33:17.961Z,22.21
2018-07-06T10:34:17.950Z,22.29
2018-07-06T10:35:17.941Z,22.19
2018-07-06T10:36:17.920Z,21.99
2018-07-06T10:37:17.920Z,21.91
2018-07-06T10:38:17.900Z,21.79
2018-07-06T10:39:17.906Z,22.02
2018-07-06T10:40:17.874Z,22.29
2018-07-06T10:41:17.864Z,22.35
2018-07-06T10:42:17.860Z,22.21
2018-07-06T10:43:17.842Z,22.41
2018-07-06T10:44:17.833Z,22.33
2018-07-06T10:45:17.827Z,22.27
2018-07-06T10:46:17.809Z,22.26
2018-07-06T10:47:17.816Z,22.39
2018-07-06T10:48:17.788Z,22.41
2018-07-06T10:49:17.780Z,22.44
2018-07-06T10:50:17.765Z,22.39
2018-07-06T10:51:17.754Z,22.41
2018-07-06T10:52:17.759Z,22.42
2018-07-06T10:53:17.734Z,22.36
2018-07-06T10:54:17.722Z,22.42
2018-07-06T10:55:17.715Z,22.45
2018-07-06T10:56:17.703Z,22.42
2018-07-06T10:57:17.710Z,22.39
2018-07-06T10:58:17.678Z,22.42
2018-07-06T10:59:17.696Z,22.45
2018-07-06T11:00:17.657Z,22.44
2018-07-06T11:01:17.663Z,22.21
2018-07-06T11:02:17.661Z,22.31
2018-07-06T11:03:17.624Z,22.44
2018-07-06T11:04:17.613Z,22.56
2018-07-06T11:05:17.623Z,22.78
2018-07-06T11:06:17.595Z,22.70
2018-07-06T11:07:17.590Z,22.63
2018-07-06T11:08:17.584Z,22.63
2018-07-06T11:09:17.565Z,22.69
2018-07-06T11:10:17.557Z,22.64
2018-07-06T11:11:17.538Z,22.72
2018-07-06T11:12:17.531Z,22.44
2018-07-06T11:13:17.543Z,22.45
2018-07-06T11:14:17.506Z,22.49
2018-07-06T11:15:17.496Z,22.39
2018-07-06T11:16:17.484Z,22.42
2018-07-06T11:17:17.474Z,22.49
2018-07-06T11:18:17.473Z,22.57
2018-07-06T11:19:17.458Z,22.70
2018-07-06T11:20:17.441Z,22.82
2018-07-06T11:21:17.436Z,22.97
2018-07-06T11:22:17.422Z,23.07
2018-07-06T11:23:17.421Z,23.18
2018-07-06T11:24:17.402Z,23.29
2018-07-06T11:25:17.426Z,23.29
2018-07-06T11:26:17.377Z,23.39
2018-07-06T11:27:17.369Z,23.39
2018-07-06T11:28:17.375Z,23.26
2018-07-06T11:29:17.347Z,23.18
2018-07-06T11:30:17.337Z,22.89
2018-07-06T11:31:17.327Z,22.78
2018-07-06T11:32:17.317Z,22.49
2018-07-06T11:33:17.312Z,22.41
2018-07-06T11:34:17.289Z,22.41
2018-07-06T11:35:17.280Z,22.48
2018-07-06T11:36:17.273Z,22.45
2018-07-06T11:37:17.264Z,22.49
2018-07-06T11:38:17.394Z,22.72
2018-07-06T11:39:17.237Z,22.81
2018-07-06T11:40:17.226Z,22.93
2018-07-06T11:41:17.216Z,22.97
2018-07-06T11:42:17.204Z,22.97
2018-07-06T11:43:17.236Z,22.89
2018-07-06T11:44:17.192Z,23.04
2018-07-06T11:45:17.276Z,23.00
2018-07-06T11:46:17.160Z,23.19
2018-07-06T11:47:17.170Z,23.19
2018-07-06T11:48:18.135Z,23.15
2018-07-06T11:49:17.130Z,23.37
2018-07-06T11:50:17.138Z,23.39
2018-07-06T11:51:17.117Z,23.50
2018-07-06T11:52:17.106Z,23.59
2018-07-06T11:53:17.097Z,23.68
2018-07-06T11:54:17.076Z,23.54
2018-07-06T11:55:17.071Z,23.45
2018-07-06T11:56:17.076Z,23.57
2018-07-06T11:57:17.041Z,23.64
2018-07-06T11:58:17.083Z,23.57
2018-07-06T11:59:17.022Z,23.50
2018-07-06T12:00:17.016Z,23.44
2018-07-06T12:01:16.999Z,23.47
2018-07-06T12:02:16.987Z,23.63
2018-07-06T12:03:16.990Z,23.57
2018-07-06T12:04:17.154Z,23.56
2018-07-06T12:05:16.955Z,23.78
2018-07-06T12:06:16.946Z,23.68
2018-07-06T12:07:16.936Z,23.71
2018-07-06T12:08:16.933Z,23.59
2018-07-06T12:09:16.915Z,23.63
2018-07-06T12:10:16.907Z,23.63
2018-07-06T12:11:16.899Z,23.64
2018-07-06T12:12:16.889Z,23.72
2018-07-06T12:13:16.883Z,23.77
2018-07-06T12:14:16.865Z,23.75
2018-07-06T12:15:16.852Z,23.75
2018-07-06T12:16:16.839Z,23.77
2018-07-06T12:17:16.842Z,23.87
2018-07-06T12:18:16.827Z,23.68
2018-07-06T12:19:16.804Z,23.47
2018-07-06T12:20:16.796Z,23.25
2018-07-06T12:21:16.833Z,23.25
2018-07-06T12:22:16.772Z,23.37
2018-07-06T12:23:16.783Z,23.41
2018-07-06T12:24:16.753Z,23.38
2018-07-06T12:25:16.748Z,23.39
2018-07-06T12:26:16.801Z,23.42
2018-07-06T12:27:16.719Z,23.62
2018-07-06T12:28:16.717Z,23.68
2018-07-06T12:29:16.778Z,23.72
2018-07-06T12:30:16.692Z,24.00
2018-07-06T12:31:16.679Z,23.93
2018-07-06T12:32:16.666Z,24.05
2018-07-06T12:33:16.681Z,23.97
2018-07-06T12:34:16.649Z,23.75
2018-07-06T12:35:16.761Z,23.57
2018-07-06T12:36:16.678Z,23.42
2018-07-06T12:37:16.613Z,23.37
2018-07-06T12:38:16.630Z,23.47
2018-07-06T12:39:16.595Z,23.49
2018-07-06T12:40:16.579Z,23.59
2018-07-06T12:41:16.600Z,23.34
2018-07-06T12:42:16.568Z,23.21
2018-07-06T12:43:16.554Z,23.22
2018-07-06T12:44:16.559Z,23.29
2018-07-06T12:45:16.530Z,23.23
2018-07-06T12:46:16.514Z,23.38
2018-07-06T12:47:16.542Z,23.50
2018-07-06T12:48:16.503Z,23.53
2018-07-06T12:49:16.481Z,23.63
2018-07-06T12:50:16.469Z,23.75
2018-07-06T12:51:16.463Z,23.93
2018-07-06T12:52:16.455Z,24.02